Time;durP1;ratioP1;P1;durP2;ratioP2;P2;SDS_P1;SDS_P2;PMS_P1;PMS_P2;Temp;Humidity;BMP_temperature;BMP_pressure;BME280_temperature;BME280_humidity;BME280_pressure;Samples;Min_cycle;Max_cycle;Signal;HPM_P1;HPM_P2
2021/04/18 00:02:25;;;;;;;7.00;6.40;;;7.40;99.90;;;;;;5034966;28;20516;-56
2021/04/18 00:04:50;;;;;;;8.43;7.63;;;7.40;99.90;;;;;;5037359;28;20542;-55
2021/04/18 00:07:16;;;;;;;6.50;6.00;;;7.30;99.90;;;;;;5034978;28;20632;-54
2021/04/18 00:09:44;;;;;;;7.40;6.70;;;7.20;99.90;;;;;;5017497;28;20203;-55
2021/04/18 00:12:10;;;;;;;8.73;7.90;;;7.10;99.90;;;;;;5034981;28;20750;-57
2021/04/18 00:14:36;;;;;;;7.60;7.00;;;6.90;99.90;;;;;;5034754;28;20426;-56
2021/04/18 00:17:03;;;;;;;7.40;6.70;;;7.00;99.90;;;;;;5034702;28;20452;-55
2021/04/18 00:19:33;;;;;;;7.60;6.90;;;6.90;99.90;;;;;;5034782;28;20448;-53
2021/04/18 00:21:59;;;;;;;7.33;6.73;;;6.90;99.90;;;;;;5034667;28;20899;-55
2021/04/18 00:24:24;;;;;;;6.90;6.30;;;7.00;99.90;;;;;;5034308;28;20564;-53
2021/04/18 00:26:50;;;;;;;6.90;6.30;;;7.10;99.90;;;;;;5035041;28;20667;-57
2021/04/18 00:29:16;;;;;;;7.07;6.37;;;7.30;99.90;;;;;;5034947;28;20172;-56
2021/04/18 00:31:41;;;;;;;6.60;6.00;;;7.40;99.90;;;;;;5034724;28;20171;-54
2021/04/18 00:34:07;;;;;;;6.53;5.93;;;7.40;99.90;;;;;;5034466;28;20282;-54
2021/04/18 00:36:32;;;;;;;6.40;5.80;;;7.20;99.90;;;;;;5034670;28;20175;-55
2021/04/18 00:38:58;;;;;;;8.07;6.00;;;7.10;99.90;;;;;;5036098;28;20221;-56
2021/04/18 00:41:24;;;;;;;6.63;6.03;;;7.20;99.90;;;;;;5035653;28;20648;-53
2021/04/18 00:43:50;;;;;;;5.67;5.27;;;7.20;99.90;;;;;;5035318;28;20485;-55
2021/04/18 00:46:15;;;;;;;7.07;6.40;;;7.30;99.90;;;;;;5035279;28;20735;-56
2021/04/18 00:48:43;;;;;;;5.53;5.03;;;7.30;99.90;;;;;;5035743;28;20176;-56
2021/04/18 00:51:13;;;;;;;6.20;5.70;;;7.30;99.90;;;;;;5036066;28;20171;-56
2021/04/18 00:53:40;;;;;;;6.80;6.20;;;7.30;99.90;;;;;;5035516;28;20418;-53
2021/04/18 00:56:06;;;;;;;6.63;6.03;;;7.30;99.90;;;;;;5033675;28;20410;-55
2021/04/18 00:58:33;;;;;;;8.10;6.30;;;7.30;99.90;;;;;;5034007;28;20500;-55
2021/04/18 01:00:59;;;;;;;6.37;5.87;;;7.30;99.90;;;;;;5034280;28;20485;-56
2021/04/18 01:03:24;;;;;;;7.07;6.47;;;7.40;99.90;;;;;;5034170;28;20540;-57
2021/04/18 01:05:50;;;;;;;7.10;6.37;;;7.40;99.90;;;;;;5034064;28;20168;-56
2021/04/18 01:08:16;;;;;;;6.40;5.80;;;7.40;99.90;;;;;;5021798;28;20175;-53
2021/04/18 01:10:42;;;;;;;8.20;7.50;;;7.30;99.90;;;;;;5033882;28;20164;-54
2021/04/18 01:13:08;;;;;;;8.30;7.60;;;7.30;99.90;;;;;;5034340;28;20187;-56
2021/04/18 01:15:34;;;;;;;10.07;9.20;;;7.20;99.90;;;;;;5033875;28;20818;-53
2021/04/18 01:17:59;;;;;;;8.97;8.20;;;7.10;99.90;;;;;;5033667;28;20418;-55
2021/04/18 01:20:25;;;;;;;8.23;7.53;;;6.90;99.90;;;;;;5033724;28;20179;-56
2021/04/18 01:22:52;;;;;;;8.13;7.43;;;6.90;99.90;;;;;;5033658;28;20226;-55
2021/04/18 01:25:18;;;;;;;9.63;8.83;;;6.90;99.90;;;;;;5033407;28;20183;-53
2021/04/18 01:27:46;;;;;;;7.30;6.70;;;6.90;99.90;;;;;;5033458;28;20406;-54
2021/04/18 01:30:20;;;;;;;8.10;7.40;;;7.00;99.90;;;;;;5033532;28;20429;-53
2021/04/18 01:32:48;;;;;;;8.93;8.13;;;6.90;99.90;;;;;;5033646;28;20426;-54
2021/04/18 01:35:17;;;;;;;10.43;9.00;;;6.80;99.90;;;;;;5033394;28;20508;-54
2021/04/18 01:37:43;;;;;;;9.20;8.50;;;6.80;99.90;;;;;;5033820;28;20417;-54
2021/04/18 01:40:13;;;;;;;10.80;9.70;;;6.80;99.90;;;;;;5032000;28;20781;-54
2021/04/18 01:42:40;;;;;;;8.93;8.07;;;6.80;99.90;;;;;;5034024;28;20241;-56
2021/04/18 01:45:07;;;;;;;12.03;7.40;;;6.70;99.90;;;;;;5033827;28;20446;-55
2021/04/18 01:47:32;;;;;;;10.20;9.20;;;6.70;99.90;;;;;;5033472;28;20432;-53
2021/04/18 01:49:58;;;;;;;8.90;8.13;;;6.70;99.90;;;;;;5033739;28;20958;-54
2021/04/18 01:52:25;;;;;;;8.57;7.87;;;6.70;99.90;;;;;;5033411;28;20401;-55
2021/04/18 01:54:50;;;;;;;8.90;8.00;;;6.70;99.90;;;;;;5033343;28;20901;-53
2021/04/18 01:57:16;;;;;;;8.60;7.90;;;6.80;99.90;;;;;;5033733;28;20409;-54
2021/04/18 01:59:42;;;;;;;8.70;7.90;;;6.90;99.90;;;;;;5033643;28;20619;-53
2021/04/18 02:02:12;;;;;;;9.77;8.80;;;7.00;99.90;;;;;;5017930;28;20183;-53
2021/04/18 02:04:38;;;;;;;8.80;8.10;;;7.10;99.90;;;;;;5033116;28;20202;-55
2021/04/18 02:07:04;;;;;;;9.70;8.90;;;7.00;99.90;;;;;;5035269;28;20766;-54
2021/04/18 02:09:31;;;;;;;9.60;8.80;;;6.90;99.90;;;;;;5037113;28;20398;-54
2021/04/18 02:12:08;;;;;;;9.33;8.53;;;6.70;99.90;;;;;;5037089;28;20459;-53
2021/04/18 02:14:35;;;;;;;9.67;8.77;;;6.60;99.90;;;;;;5037338;28;20429;-53
2021/04/18 02:17:02;;;;;;;10.20;9.40;;;6.50;99.90;;;;;;5037470;28;20415;-54
2021/04/18 02:19:28;;;;;;;10.63;9.63;;;6.40;99.90;;;;;;5037194;28;20410;-57
2021/04/18 02:21:54;;;;;;;10.40;9.30;;;6.50;99.90;;;;;;5037007;28;20420;-56
2021/04/18 02:24:20;;;;;;;11.40;10.50;;;6.60;99.90;;;;;;5036486;28;20456;-55
2021/04/18 02:26:45;;;;;;;10.70;9.63;;;6.70;99.90;;;;;;5037162;28;20410;-57
2021/04/18 02:29:11;;;;;;;10.97;10.07;;;6.80;99.90;;;;;;5037054;28;20428;-56
2021/04/18 02:31:37;;;;;;;9.60;8.80;;;6.80;99.90;;;;;;5037096;28;20206;-53
2021/04/18 02:34:03;;;;;;;11.80;10.80;;;6.90;99.90;;;;;;5036697;28;20199;-50
2021/04/18 02:36:29;;;;;;;10.20;9.30;;;7.00;99.90;;;;;;5037131;28;20174;-54
2021/04/18 02:38:55;;;;;;;10.33;9.43;;;7.10;99.90;;;;;;5036534;28;20913;-55
2021/04/18 02:41:21;;;;;;;10.90;9.90;;;7.10;99.90;;;;;;5037228;28;20496;-52
2021/04/18 02:43:47;;;;;;;10.30;9.40;;;7.20;99.90;;;;;;5036745;28;20199;-53
2021/04/18 02:46:13;;;;;;;10.60;9.70;;;7.20;99.90;;;;;;5036991;28;20421;-53
2021/04/18 02:48:38;;;;;;;9.70;8.90;;;7.20;99.90;;;;;;5036447;28;20272;-56
2021/04/18 02:51:04;;;;;;;11.07;10.07;;;7.10;99.90;;;;;;5036934;28;20202;-56
2021/04/18 02:53:30;;;;;;;11.70;10.60;;;7.00;99.90;;;;;;5036583;28;20594;-54
2021/04/18 02:55:55;;;;;;;11.43;10.33;;;6.90;99.90;;;;;;5036528;28;20179;-55
2021/04/18 02:58:21;;;;;;;11.30;10.20;;;6.80;99.90;;;;;;5036644;28;20168;-53
2021/04/18 03:00:46;;;;;;;10.73;9.83;;;6.90;99.90;;;;;;5036946;28;20289;-56
2021/04/18 03:03:12;;;;;;;10.23;9.33;;;6.90;99.90;;;;;;5037310;28;20211;-56
2021/04/18 03:05:38;;;;;;;9.73;8.93;;;6.90;99.90;;;;;;5038078;28;20191;-56
2021/04/18 03:08:04;;;;;;;11.43;10.23;;;7.00;99.90;;;;;;5037761;28;20195;-55
2021/04/18 03:10:30;;;;;;;10.60;9.60;;;6.90;99.90;;;;;;5037070;28;20200;-53
2021/04/18 03:12:56;;;;;;;11.27;10.27;;;6.90;99.90;;;;;;5036224;28;20414;-57
2021/04/18 03:15:22;;;;;;;12.23;11.17;;;6.90;99.90;;;;;;5036165;28;20199;-54
2021/04/18 03:17:48;;;;;;;13.10;12.00;;;7.00;99.90;;;;;;5035972;28;20520;-55
2021/04/18 03:20:15;;;;;;;11.50;10.50;;;7.00;99.90;;;;;;5036225;28;20394;-53
2021/04/18 03:22:40;;;;;;;11.60;10.70;;;6.90;99.90;;;;;;5035941;28;20413;-55
2021/04/18 03:25:07;;;;;;;11.20;10.20;;;6.80;99.90;;;;;;5035729;28;20437;-56
2021/04/18 03:27:33;;;;;;;12.20;11.17;;;6.70;99.90;;;;;;5035857;28;20175;-54
2021/04/18 03:29:59;;;;;;;13.33;12.03;;;6.70;99.90;;;;;;5035665;28;20402;-54
2021/04/18 03:32:25;;;;;;;12.60;11.50;;;6.70;99.90;;;;;;5035658;28;20428;-56
2021/04/18 03:34:50;;;;;;;11.40;10.50;;;6.80;99.90;;;;;;5035493;28;20412;-53
2021/04/18 03:37:16;;;;;;;12.50;11.40;;;6.90;99.90;;;;;;5036056;28;20167;-56
2021/04/18 03:39:42;;;;;;;11.50;10.50;;;7.00;99.90;;;;;;5035417;28;20174;-56
2021/04/18 03:42:08;;;;;;;11.87;10.77;;;7.10;99.90;;;;;;5035590;28;20416;-56
2021/04/18 03:44:34;;;;;;;12.47;11.37;;;7.10;99.90;;;;;;5035411;28;20198;-54
2021/04/18 03:47:00;;;;;;;11.90;10.80;;;7.00;99.90;;;;;;5035657;28;20456;-56
2021/04/18 03:49:26;;;;;;;14.23;12.97;;;6.90;99.90;;;;;;5035407;28;20902;-57
2021/04/18 03:51:51;;;;;;;14.53;13.13;;;6.70;99.90;;;;;;5035286;28;20517;-53
2021/04/18 03:54:18;;;;;;;14.00;12.70;;;6.70;99.90;;;;;;5035085;28;20215;-54
2021/04/18 03:56:44;;;;;;;12.73;11.23;;;6.80;99.90;;;;;;5035161;28;20210;-53
2021/04/18 03:59:10;;;;;;;11.67;10.73;;;6.80;99.90;;;;;;5034076;28;20414;-57
2021/04/18 04:01:35;;;;;;;12.63;11.40;;;6.80;99.90;;;;;;5024758;28;20175;-53
2021/04/18 04:04:01;;;;;;;13.73;12.47;;;6.80;99.90;;;;;;5034407;28;20208;-57
2021/04/18 04:06:27;;;;;;;11.73;10.83;;;6.80;99.90;;;;;;5036118;28;20667;-55
2021/04/18 04:08:52;;;;;;;13.60;12.40;;;6.80;99.90;;;;;;5033825;28;20225;-56
2021/04/18 04:11:18;;;;;;;13.00;11.90;;;6.70;99.90;;;;;;5034559;28;20201;-53
2021/04/18 04:13:43;;;;;;;13.27;12.07;;;6.80;99.90;;;;;;5034082;28;20188;-55
2021/04/18 04:16:09;;;;;;;11.93;10.80;;;6.90;99.90;;;;;;5033965;28;20281;-56
2021/04/18 04:18:35;;;;;;;12.90;11.80;;;6.80;99.90;;;;;;5033877;28;20175;-55
2021/04/18 04:21:00;;;;;;;11.43;10.53;;;6.70;99.90;;;;;;5033933;28;20242;-57
2021/04/18 04:23:26;;;;;;;11.97;10.87;;;6.90;99.90;;;;;;5033797;28;20318;-54
2021/04/18 04:25:51;;;;;;;11.63;10.57;;;7.00;99.90;;;;;;5033661;28;20203;-57
2021/04/18 04:28:17;;;;;;;12.07;10.97;;;7.00;99.90;;;;;;5033738;28;20170;-53
2021/04/18 04:30:42;;;;;;;12.73;11.57;;;7.10;99.90;;;;;;5032906;28;20171;-57
2021/04/18 04:33:08;;;;;;;10.80;9.80;;;7.00;99.90;;;;;;5033935;28;20270;-54
2021/04/18 04:35:34;;;;;;;14.10;12.80;;;7.00;99.90;;;;;;5033659;28;20254;-54
2021/04/18 04:38:00;;;;;;;11.20;10.17;;;6.90;99.90;;;;;;5033504;28;20191;-56
2021/04/18 04:40:26;;;;;;;10.80;9.90;;;7.00;99.90;;;;;;5033305;28;20497;-56
2021/04/18 04:42:52;;;;;;;12.60;11.50;;;7.00;99.90;;;;;;5033445;28;20214;-54
2021/04/18 04:45:18;;;;;;;11.73;10.30;;;7.10;99.90;;;;;;5033573;28;20453;-53
2021/04/18 04:47:43;;;;;;;11.53;10.53;;;7.20;99.90;;;;;;5033364;28;20402;-54
2021/04/18 04:50:10;;;;;;;11.80;10.70;;;7.10;99.90;;;;;;5033396;28;20761;-57
2021/04/18 04:52:36;;;;;;;11.10;9.93;;;7.10;99.90;;;;;;5033641;28;20211;-56
2021/04/18 04:55:03;;;;;;;10.53;9.50;;;7.20;99.90;;;;;;5015487;28;20965;-56
2021/04/18 04:57:28;;;;;;;14.27;12.97;;;7.30;99.90;;;;;;5033633;28;20163;-53
2021/04/18 04:59:54;;;;;;;15.33;13.93;;;7.30;99.90;;;;;;5033567;28;20459;-56
2021/04/18 05:02:19;;;;;;;14.30;13.00;;;7.40;99.90;;;;;;5013687;28;567425;-53
2021/04/18 05:04:45;;;;;;;15.10;13.57;;;7.40;99.90;;;;;;5034239;28;20195;-53
2021/04/18 05:07:11;;;;;;;13.50;12.20;;;7.40;99.90;;;;;;5033789;28;20164;-56
2021/04/18 05:09:36;;;;;;;14.17;12.87;;;7.30;99.90;;;;;;5033836;28;20163;-57
2021/04/18 05:12:04;;;;;;;14.27;12.97;;;7.30;99.90;;;;;;5034314;28;20711;-54
2021/04/18 05:14:30;;;;;;;15.50;14.10;;;7.20;99.90;;;;;;5034037;28;20199;-53
2021/04/18 05:16:55;;;;;;;14.97;13.57;;;7.00;99.90;;;;;;5033812;28;20964;-55
2021/04/18 05:19:21;;;;;;;12.93;11.73;;;7.00;99.90;;;;;;5034026;28;20632;-52
2021/04/18 05:21:46;;;;;;;13.60;12.30;;;6.90;99.90;;;;;;5016365;28;20179;-56
2021/04/18 05:24:12;;;;;;;14.60;13.40;;;7.00;99.90;;;;;;5033342;28;20203;-55
2021/04/18 05:26:38;;;;;;;13.50;12.20;;;7.10;99.90;;;;;;5033789;28;20167;-55
2021/04/18 05:29:03;;;;;;;12.77;11.57;;;7.10;99.90;;;;;;5033894;28;20160;-57
2021/04/18 05:31:29;;;;;;;13.63;12.43;;;7.20;99.90;;;;;;5033752;28;20163;-56
2021/04/18 05:33:55;;;;;;;13.60;12.40;;;7.20;99.90;;;;;;5033448;28;20198;-56
2021/04/18 05:36:20;;;;;;;13.40;12.30;;;7.30;99.90;;;;;;5033579;28;20625;-55
2021/04/18 05:38:46;;;;;;;13.83;12.63;;;7.40;99.90;;;;;;5034032;28;20180;-55
2021/04/18 05:41:11;;;;;;;14.33;12.93;;;7.50;99.90;;;;;;5029477;28;20222;-54
2021/04/18 05:43:37;;;;;;;13.60;12.40;;;7.60;99.90;;;;;;5033277;28;20223;-56
2021/04/18 05:46:03;;;;;;;11.57;10.60;;;7.60;99.90;;;;;;5033411;28;20168;-55
2021/04/18 05:48:28;;;;;;;12.53;11.33;;;7.60;99.90;;;;;;5033263;28;20258;-53
2021/04/18 05:50:54;;;;;;;12.47;11.47;;;7.60;99.90;;;;;;5033186;28;20209;-53
2021/04/18 05:53:19;;;;;;;14.63;13.33;;;7.60;99.90;;;;;;5015670;28;20206;-55
2021/04/18 05:55:46;;;;;;;13.17;12.07;;;7.60;99.90;;;;;;5033099;28;20201;-53
2021/04/18 05:58:12;;;;;;;12.77;11.70;;;7.60;99.90;;;;;;5033510;28;20170;-53
2021/04/18 06:00:39;;;;;;;10.93;10.00;;;7.40;99.90;;;;;;5033464;28;20544;-57
2021/04/18 06:03:05;;;;;;;11.23;10.23;;;7.50;99.90;;;;;;5033162;28;20540;-56
2021/04/18 06:05:31;;;;;;;11.33;10.43;;;7.60;99.90;;;;;;5033322;28;20446;-57
2021/04/18 06:07:57;;;;;;;10.63;9.63;;;7.70;99.90;;;;;;5041556;28;20405;-53
2021/04/18 06:10:22;;;;;;;11.10;10.10;;;7.60;99.90;;;;;;5052954;28;20682;-54
2021/04/18 06:12:48;;;;;;;12.87;11.67;;;7.60;99.90;;;;;;5053798;28;20236;-55
2021/04/18 06:15:14;;;;;;;13.20;12.00;;;7.70;99.90;;;;;;5053205;28;20170;-57
2021/04/18 06:17:39;;;;;;;12.00;10.90;;;7.80;99.90;;;;;;5044188;28;20258;-56
2021/04/18 06:20:06;;;;;;;12.03;10.73;;;7.70;99.90;;;;;;5032948;28;20178;-56
2021/04/18 06:22:32;;;;;;;12.53;11.47;;;7.60;99.90;;;;;;5032936;28;20636;-55
2021/04/18 06:24:58;;;;;;;12.80;11.47;;;7.50;99.90;;;;;;5032731;28;20966;-55
2021/04/18 06:27:24;;;;;;;12.13;11.20;;;7.50;99.90;;;;;;5033246;28;20405;-54
2021/04/18 06:29:50;;;;;;;11.57;10.50;;;7.60;99.90;;;;;;5033357;28;20616;-53
2021/04/18 06:32:15;;;;;;;12.03;10.90;;;7.50;99.90;;;;;;5032761;28;20541;-55
2021/04/18 06:34:41;;;;;;;11.83;10.83;;;7.60;99.90;;;;;;5032742;28;20253;-58
2021/04/18 06:37:07;;;;;;;11.30;10.30;;;7.80;99.90;;;;;;5032743;28;20269;-54
2021/04/18 06:39:33;;;;;;;12.13;11.03;;;7.80;99.90;;;;;;5032610;28;20548;-55
2021/04/18 06:42:03;;;;;;;12.70;11.23;;;7.80;99.90;;;;;;5032798;28;20410;-53
2021/04/18 06:44:29;;;;;;;12.80;11.70;;;7.80;99.90;;;;;;5032669;28;20984;-51
2021/04/18 06:46:57;;;;;;;12.03;10.93;;;7.90;99.90;;;;;;5032758;28;20620;-53
2021/04/18 06:49:23;;;;;;;12.90;11.67;;;8.10;99.90;;;;;;5033075;28;20417;-55
2021/04/18 06:51:50;;;;;;;13.33;12.10;;;8.10;99.90;;;;;;5032757;28;20406;-54
2021/04/18 06:54:17;;;;;;;13.00;11.70;;;8.10;99.90;;;;;;5017994;28;20441;-53
2021/04/18 06:56:43;;;;;;;12.90;11.70;;;8.20;99.90;;;;;;5036794;28;20419;-53
2021/04/18 06:59:08;;;;;;;13.77;12.53;;;8.30;99.90;;;;;;5036370;28;20428;-53
2021/04/18 07:01:37;;;;;;;12.30;11.30;;;8.20;99.90;;;;;;5036284;28;20167;-56
2021/04/18 07:04:12;;;;;;;14.10;12.60;;;8.00;99.90;;;;;;5036256;28;20195;-56
2021/04/18 07:06:46;;;;;;;11.87;10.80;;;8.30;99.90;;;;;;5036352;28;20412;-54
2021/04/18 07:09:13;;;;;;;13.03;11.83;;;8.60;99.90;;;;;;5035989;28;20934;-53
2021/04/18 07:11:56;;;;;;;12.53;11.47;;;8.60;99.90;;;;;;5037056;28;20747;-53
2021/04/18 07:14:35;;;;;;;12.40;11.10;;;8.70;99.90;;;;;;5036978;28;20430;-51
2021/04/18 07:17:08;;;;;;;14.50;13.07;;;8.80;99.90;;;;;;5037208;28;20478;-55
2021/04/18 07:19:35;;;;;;;14.10;11.90;;;8.70;99.90;;;;;;5035845;28;20407;-53
2021/04/18 07:22:02;;;;;;;12.87;11.60;;;8.50;99.90;;;;;;5036279;28;20406;-55
2021/04/18 07:24:29;;;;;;;14.00;12.60;;;8.60;99.90;;;;;;5035581;28;20454;-55
2021/04/18 07:27:01;;;;;;;12.17;10.53;;;8.70;99.90;;;;;;5035843;28;20890;-56
2021/04/18 07:29:29;;;;;;;12.90;11.70;;;8.70;99.90;;;;;;5036038;28;20864;-54
2021/04/18 07:31:58;;;;;;;13.43;12.13;;;8.90;99.90;;;;;;5035670;28;20746;-57
2021/04/18 07:34:25;;;;;;;12.80;11.67;;;8.70;99.90;;;;;;5035685;28;20452;-53
2021/04/18 07:37:09;;;;;;;12.90;11.60;;;8.50;99.90;;;;;;5017416;28;20449;-55
2021/04/18 07:39:48;;;;;;;11.67;10.67;;;8.70;99.90;;;;;;5035513;28;20390;-53
2021/04/18 07:42:36;;;;;;;12.23;11.03;;;9.10;99.90;;;;;;5035134;28;20421;-53
2021/04/18 07:45:16;;;;;;;12.43;11.23;;;9.10;99.90;;;;;;5035599;28;20799;-53
2021/04/18 07:47:45;;;;;;;12.33;11.23;;;9.20;99.90;;;;;;5035368;28;20406;-56
2021/04/18 07:50:19;;;;;;;11.00;10.00;;;9.30;99.90;;;;;;5017652;28;20418;-53
2021/04/18 07:52:47;;;;;;;12.43;11.20;;;9.20;99.90;;;;;;5035367;28;20424;-54
2021/04/18 07:55:14;;;;;;;12.20;11.07;;;8.90;99.90;;;;;;5035181;28;20406;-54
2021/04/18 07:57:41;;;;;;;12.63;11.33;;;8.90;99.90;;;;;;5035088;28;20919;-56
2021/04/18 08:00:10;;;;;;;11.37;10.33;;;8.80;99.90;;;;;;5035232;28;20407;-55
2021/04/18 08:02:36;;;;;;;12.63;9.40;;;8.80;99.90;;;;;;5037513;28;20453;-52
2021/04/18 08:05:03;;;;;;;11.53;8.80;;;9.00;99.90;;;;;;5034214;28;21004;-56
2021/04/18 08:07:29;;;;;;;10.20;9.10;;;9.20;99.90;;;;;;5035052;28;20410;-57
2021/04/18 08:10:23;;;;;;;9.50;8.60;;;9.10;99.90;;;;;;5034572;28;20498;-53
2021/04/18 08:13:16;;;;;;;13.67;12.23;;;8.80;99.90;;;;;;5035321;28;20179;-52
2021/04/18 08:15:52;;;;;;;12.00;10.17;;;8.60;99.90;;;;;;5034085;28;20560;-56
2021/04/18 08:18:30;;;;;;;9.73;8.73;;;8.40;99.90;;;;;;5035202;28;20395;-53
2021/04/18 08:20:56;;;;;;;11.33;9.80;;;8.70;99.90;;;;;;5035266;28;20393;-52
2021/04/18 08:23:22;;;;;;;11.27;9.17;;;8.70;99.90;;;;;;5035098;28;20425;-53
2021/04/18 08:26:07;;;;;;;13.13;9.80;;;8.80;99.90;;;;;;5034445;28;20457;-56
2021/04/18 08:28:58;;;;;;;10.50;8.50;;;8.80;99.90;;;;;;5034900;28;20920;-55
2021/04/18 08:31:24;;;;;;;10.37;8.43;;;8.90;99.90;;;;;;5034730;28;20402;-51
2021/04/18 08:33:51;;;;;;;10.53;9.60;;;9.10;99.90;;;;;;5033695;28;20777;-55
2021/04/18 08:36:20;;;;;;;9.40;8.50;;;9.20;99.90;;;;;;5026858;28;20409;-53
2021/04/18 08:39:05;;;;;;;14.80;8.10;;;9.20;99.90;;;;;;5016601;28;20480;-54
2021/04/18 08:41:41;;;;;;;10.40;7.53;;;9.50;99.90;;;;;;5034307;28;20384;-52
2021/04/18 08:44:21;;;;;;;8.73;7.93;;;9.50;99.90;;;;;;5034637;28;20458;-56
2021/04/18 08:46:55;;;;;;;9.57;8.67;;;9.70;99.90;;;;;;5034161;28;20526;-49
2021/04/18 08:49:31;;;;;;;7.47;6.80;;;9.70;99.90;;;;;;5034351;28;20381;-55
2021/04/18 08:51:59;;;;;;;7.10;6.40;;;9.80;99.90;;;;;;5034117;28;20747;-52
2021/04/18 08:54:41;;;;;;;8.97;6.40;;;10.10;99.90;;;;;;5034063;28;20439;-52
2021/04/18 08:57:18;;;;;;;9.23;6.83;;;10.10;99.90;;;;;;5034312;28;20393;-51
2021/04/18 09:00:14;;;;;;;7.97;6.77;;;9.90;99.90;;;;;;5034779;28;20510;-52
2021/04/18 09:02:41;;;;;;;9.60;7.87;;;10.00;99.90;;;;;;5027930;28;20823;-51
2021/04/18 09:05:12;;;;;;;9.97;7.53;;;9.90;99.90;;;;;;5033684;28;20486;-52
2021/04/18 09:07:41;;;;;;;8.30;6.80;;;10.20;99.90;;;;;;5034046;28;20866;-52
2021/04/18 09:10:09;;;;;;;10.27;7.33;;;10.20;99.90;;;;;;5033785;28;20406;-53
2021/04/18 09:12:35;;;;;;;10.60;7.00;;;10.30;99.90;;;;;;5033668;28;20410;-55
2021/04/18 09:15:04;;;;;;;8.63;7.30;;;10.40;99.90;;;;;;5033465;28;20778;-53
2021/04/18 09:17:31;;;;;;;9.93;7.60;;;10.30;99.90;;;;;;5033521;28;20414;-57
2021/04/18 09:20:03;;;;;;;9.43;7.80;;;10.10;99.90;;;;;;5033986;28;20512;-56
2021/04/18 09:22:28;;;;;;;7.70;6.90;;;10.40;99.90;;;;;;5034273;28;20503;-56
2021/04/18 09:24:58;;;;;;;9.43;8.50;;;11.00;99.90;;;;;;5033197;28;20531;-54
2021/04/18 09:27:30;;;;;;;11.93;8.17;;;11.00;99.90;;;;;;5033490;28;20166;-54
2021/04/18 09:30:01;;;;;;;8.70;7.83;;;11.00;99.90;;;;;;5033474;28;20883;-53
2021/04/18 09:32:45;;;;;;;8.90;8.00;;;10.80;99.90;;;;;;5033789;28;20460;-54
2021/04/18 09:35:12;;;;;;;9.27;8.37;;;11.10;99.90;;;;;;5033760;28;20386;-51
2021/04/18 09:37:49;;;;;;;9.17;8.23;;;11.20;99.90;;;;;;5033530;28;20463;-53
2021/04/18 09:40:16;;;;;;;11.20;9.27;;;10.80;99.90;;;;;;5033431;28;20387;-52
2021/04/18 09:42:46;;;;;;;9.37;8.57;;;10.50;99.90;;;;;;5033423;28;20457;-52
2021/04/18 09:45:16;;;;;;;9.63;8.63;;;10.60;99.90;;;;;;5015838;28;21043;-53
2021/04/18 09:47:45;;;;;;;9.07;8.17;;;10.70;99.90;;;;;;5033593;28;20409;-55
2021/04/18 09:50:41;;;;;;;10.80;9.70;;;10.90;99.90;;;;;;5033683;28;20769;-54
2021/04/18 09:53:18;;;;;;;10.13;8.40;;;10.60;99.90;;;;;;5025063;28;20437;-53
2021/04/18 09:55:50;;;;;;;9.90;8.23;;;10.90;99.90;;;;;;5033338;28;20446;-54
2021/04/18 09:58:34;;;;;;;11.33;9.57;;;11.10;99.90;;;;;;5033672;28;20406;-53
2021/04/18 10:01:00;;;;;;;8.93;8.10;;;11.20;99.90;;;;;;5033674;28;20745;-53
2021/04/18 10:03:40;;;;;;;10.10;8.53;;;11.00;99.90;;;;;;5035537;28;20474;-53
2021/04/18 10:06:06;;;;;;;10.03;8.83;;;11.00;99.90;;;;;;5033461;28;20505;-56
2021/04/18 10:08:37;;;;;;;9.90;8.90;;;11.30;99.90;;;;;;5033152;28;20398;-52
2021/04/18 10:11:05;;;;;;;10.23;8.80;;;11.60;99.90;;;;;;5033210;28;20501;-53
2021/04/18 10:13:42;;;;;;;9.70;8.70;;;11.80;99.40;;;;;;5033285;28;20421;-55
2021/04/18 10:16:10;;;;;;;9.33;8.43;;;11.40;99.50;;;;;;5033240;28;20401;-53
2021/04/18 10:18:38;;;;;;;10.30;8.80;;;11.30;99.90;;;;;;5033242;28;20532;-54
2021/04/18 10:21:18;;;;;;;8.97;8.07;;;11.40;99.90;;;;;;5033532;28;20735;-56
2021/04/18 10:23:45;;;;;;;8.30;7.50;;;11.70;99.80;;;;;;5033173;28;20766;-56
2021/04/18 10:26:11;;;;;;;11.67;10.50;;;12.10;99.60;;;;;;5032919;28;20924;-53
2021/04/18 10:28:37;;;;;;;10.10;9.10;;;12.30;98.30;;;;;;5035269;28;20471;-52
2021/04/18 10:31:03;;;;;;;10.90;8.77;;;12.00;99.30;;;;;;5036748;28;20408;-55
2021/04/18 10:33:28;;;;;;;10.67;9.57;;;11.90;98.60;;;;;;5036963;28;20457;-56
2021/04/18 10:35:58;;;;;;;11.40;10.27;;;12.10;98.00;;;;;;5037117;28;20250;-53
2021/04/18 10:38:24;;;;;;;11.10;10.00;;;12.20;98.00;;;;;;5036637;28;20168;-53
2021/04/18 10:40:50;;;;;;;12.90;10.73;;;11.90;98.60;;;;;;5036304;28;20903;-53
2021/04/18 10:43:15;;;;;;;10.90;9.80;;;11.90;98.40;;;;;;5036561;28;20544;-54
2021/04/18 10:45:41;;;;;;;11.40;10.10;;;12.10;98.30;;;;;;5036525;28;20544;-54
2021/04/18 10:48:07;;;;;;;14.00;10.50;;;12.10;98.30;;;;;;5036594;28;20221;-54
2021/04/18 10:50:33;;;;;;;11.87;10.67;;;11.90;98.30;;;;;;5036794;28;20546;-53
2021/04/18 10:52:59;;;;;;;11.60;10.50;;;12.00;98.40;;;;;;5036490;28;20524;-53
2021/04/18 10:55:24;;;;;;;10.30;9.30;;;12.00;98.00;;;;;;5035784;28;20174;-56
2021/04/18 10:57:50;;;;;;;12.47;10.73;;;12.30;98.00;;;;;;5036114;28;20775;-55
2021/04/18 11:00:16;;;;;;;10.90;9.00;;;12.30;98.00;;;;;;5036290;28;20163;-54
2021/04/18 11:02:42;;;;;;;11.93;10.03;;;12.50;98.00;;;;;;5035882;28;20622;-52
2021/04/18 11:05:09;;;;;;;12.03;10.50;;;12.70;98.30;;;;;;5036025;28;20453;-54
2021/04/18 11:07:34;;;;;;;10.30;9.30;;;12.70;98.00;;;;;;5036085;28;20190;-53
2021/04/18 11:10:00;;;;;;;10.17;8.77;;;13.30;96.60;;;;;;5036080;28;20886;-53
2021/04/18 11:12:26;;;;;;;9.90;8.93;;;13.30;95.30;;;;;;5036193;28;20171;-53
2021/04/18 11:14:52;;;;;;;9.80;8.90;;;13.00;96.90;;;;;;5036124;28;20209;-52
2021/04/18 11:17:18;;;;;;;10.53;9.53;;;13.20;95.80;;;;;;5036237;28;20479;-55
2021/04/18 11:19:44;;;;;;;10.33;9.27;;;12.80;96.00;;;;;;5036363;28;20412;-54
2021/04/18 11:22:10;;;;;;;10.00;9.10;;;12.60;96.70;;;;;;5035843;28;20221;-53
2021/04/18 11:24:36;;;;;;;11.13;9.20;;;12.60;96.40;;;;;;5036011;28;20252;-54
2021/04/18 11:27:02;;;;;;;10.70;8.50;;;12.50;97.70;;;;;;5034450;28;20222;-53
2021/04/18 11:29:27;;;;;;;9.77;8.87;;;12.30;96.60;;;;;;5027953;28;20496;-53
2021/04/18 11:31:54;;;;;;;9.80;8.80;;;12.20;96.90;;;;;;5035754;28;20644;-56
2021/04/18 11:34:20;;;;;;;10.60;8.53;;;12.10;97.00;;;;;;5035405;28;20187;-55
2021/04/18 11:36:45;;;;;;;9.80;8.87;;;12.50;97.00;;;;;;5035668;28;20406;-55
2021/04/18 11:39:11;;;;;;;10.10;8.10;;;12.80;97.10;;;;;;5017642;28;20686;-54
2021/04/18 11:41:37;;;;;;;9.30;8.40;;;12.60;96.50;;;;;;5035437;28;20172;-56
2021/04/18 11:44:04;;;;;;;10.33;9.33;;;12.80;96.60;;;;;;5035199;28;20432;-54
2021/04/18 11:46:31;;;;;;;9.87;8.97;;;12.70;96.20;;;;;;5035105;28;20441;-54
2021/04/18 11:48:56;;;;;;;9.17;8.37;;;12.20;96.40;;;;;;5035504;28;20763;-52
2021/04/18 11:51:22;;;;;;;9.20;8.30;;;11.80;97.30;;;;;;5035024;28;20413;-55
2021/04/18 11:53:48;;;;;;;9.47;8.33;;;12.40;96.90;;;;;;5034998;28;20210;-52
2021/04/18 11:56:13;;;;;;;9.93;9.07;;;12.60;96.90;;;;;;5034525;28;20202;-53
2021/04/18 11:58:39;;;;;;;8.20;7.50;;;12.50;96.20;;;;;;5034706;28;20448;-56
2021/04/18 12:01:05;;;;;;;9.07;8.20;;;12.70;96.50;;;;;;5035495;28;20171;-52
2021/04/18 12:03:31;;;;;;;9.43;7.80;;;12.70;96.10;;;;;;5037711;28;20195;-56
2021/04/18 12:05:57;;;;;;;8.60;7.80;;;12.90;96.20;;;;;;5037184;28;20461;-51
2021/04/18 12:08:23;;;;;;;10.03;8.70;;;13.20;96.60;;;;;;5037474;28;20194;-51
2021/04/18 12:10:49;;;;;;;9.83;8.97;;;13.10;96.40;;;;;;5034758;28;20900;-51
2021/04/18 12:13:15;;;;;;;9.77;8.83;;;13.00;96.00;;;;;;5034829;28;20293;-53
2021/04/18 12:15:40;;;;;;;11.97;8.53;;;12.90;96.10;;;;;;5035041;28;20503;-51
2021/04/18 12:18:06;;;;;;;10.90;8.77;;;12.70;96.50;;;;;;5034702;28;20585;-51
2021/04/18 12:20:32;;;;;;;8.47;7.67;;;12.70;96.30;;;;;;5034140;28;20183;-53
2021/04/18 12:22:57;;;;;;;10.03;9.07;;;12.80;95.90;;;;;;5034706;28;20438;-54
2021/04/18 12:25:23;;;;;;;10.10;9.10;;;12.90;96.10;;;;;;5034719;28;20202;-55
2021/04/18 12:27:49;;;;;;;10.67;9.60;;;12.80;96.00;;;;;;5033980;28;20171;-53
2021/04/18 12:30:15;;;;;;;12.10;9.60;;;12.60;96.60;;;;;;5034926;28;20414;-51
2021/04/18 12:32:45;;;;;;;9.33;8.37;;;12.80;97.10;;;;;;5034541;28;20195;-53
2021/04/18 12:35:11;;;;;;;9.33;8.43;;;13.10;96.30;;;;;;5034355;28;20960;-54
2021/04/18 12:37:37;;;;;;;9.43;8.50;;;13.50;95.80;;;;;;5035479;28;20406;-56
2021/04/18 12:40:04;;;;;;;10.00;8.63;;;13.50;95.40;;;;;;5033292;28;20887;-54
2021/04/18 12:42:29;;;;;;;8.60;7.80;;;13.60;95.20;;;;;;5034044;28;20171;-56
2021/04/18 12:44:55;;;;;;;9.70;8.90;;;13.50;95.20;;;;;;5034435;28;20508;-52
2021/04/18 12:47:20;;;;;;;9.97;8.97;;;13.60;94.90;;;;;;5034106;28;20163;-52